Time;durP1;ratioP1;P1;durP2;ratioP2;P2;SDS_P1;SDS_P2;PMS_P1;PMS_P2;Temp;Humidity;BMP_temperature;BMP_pressure;BME280_temperature;BME280_humidity;BME280_pressure;Samples;Min_cycle;Max_cycle;Signal;HPM_P1;HPM_P2
2022/08/24 00:01:31;;;;;;;2.42;2.22;;;21.80;99.90;;;;;;5050236;28;20218;-71
2022/08/24 00:03:58;;;;;;;5.40;2.63;;;21.80;99.90;;;;;;5050502;28;20227;-71
2022/08/24 00:06:27;;;;;;;4.63;2.57;;;21.70;99.90;;;;;;5050591;28;20204;-71
2022/08/24 00:08:55;;;;;;;2.97;2.63;;;21.70;99.90;;;;;;5050800;28;20247;-71
2022/08/24 00:11:22;;;;;;;2.92;2.40;;;21.70;99.90;;;;;;5050159;28;20206;-69
2022/08/24 00:13:50;;;;;;;3.20;2.58;;;21.70;99.90;;;;;;5050088;28;20705;-70
2022/08/24 00:16:17;;;;;;;5.70;2.88;;;21.60;99.90;;;;;;5049713;28;20212;-70
2022/08/24 00:18:47;;;;;;;4.72;2.40;;;21.60;99.90;;;;;;5050574;28;20573;-69
2022/08/24 00:21:14;;;;;;;3.47;2.78;;;21.60;99.90;;;;;;5050113;28;20214;-70
2022/08/24 00:23:41;;;;;;;3.10;2.80;;;21.60;99.90;;;;;;5050386;28;20208;-72
2022/08/24 00:26:09;;;;;;;4.38;2.75;;;21.60;99.90;;;;;;5050151;28;20242;-72
2022/08/24 00:28:36;;;;;;;3.13;2.20;;;21.60;99.90;;;;;;5049668;28;20606;-71
2022/08/24 00:31:05;;;;;;;3.90;2.60;;;21.50;99.90;;;;;;5049616;28;20304;-71
2022/08/24 00:33:32;;;;;;;3.40;2.72;;;21.50;99.90;;;;;;5049785;28;20212;-72
2022/08/24 00:36:01;;;;;;;3.10;2.77;;;21.50;99.90;;;;;;5049752;28;20204;-72
2022/08/24 00:38:28;;;;;;;5.37;2.97;;;21.50;99.90;;;;;;5046874;28;20204;-71
2022/08/24 00:40:54;;;;;;;2.90;2.67;;;21.40;99.90;;;;;;5029968;28;20215;-71
2022/08/24 00:43:24;;;;;;;4.23;2.97;;;21.40;99.90;;;;;;5029745;28;20236;-71
2022/08/24 00:46:04;;;;;;;3.63;2.87;;;21.40;99.90;;;;;;5049469;28;20196;-70
2022/08/24 00:48:37;;;;;;;3.72;2.53;;;21.40;99.90;;;;;;5049790;28;20228;-71
2022/08/24 00:51:13;;;;;;;4.32;2.95;;;21.40;99.90;;;;;;5050149;28;20196;-70
2022/08/24 00:53:45;;;;;;;5.13;2.90;;;21.40;99.90;;;;;;5049403;28;20661;-71
2022/08/24 00:56:17;;;;;;;3.80;2.90;;;21.30;99.90;;;;;;5049479;28;20656;-71
2022/08/24 00:58:48;;;;;;;5.32;3.10;;;21.30;99.90;;;;;;5049830;28;20193;-70
2022/08/24 01:01:15;;;;;;;5.50;2.50;;;21.30;99.90;;;;;;5049209;28;20254;-70
2022/08/24 01:03:43;;;;;;;2.95;2.65;;;21.30;99.90;;;;;;5049680;28;20200;-71
2022/08/24 01:06:12;;;;;;;3.58;2.72;;;21.30;99.90;;;;;;5049536;28;20200;-71
2022/08/24 01:08:40;;;;;;;5.53;2.70;;;21.20;99.90;;;;;;5049171;28;20231;-71
2022/08/24 01:11:11;;;;;;;3.67;3.38;;;21.20;99.90;;;;;;5049353;28;20208;-71
2022/08/24 01:13:39;;;;;;;4.47;2.80;;;21.20;99.90;;;;;;5050752;28;20248;-70
2022/08/24 01:16:08;;;;;;;3.63;3.20;;;21.10;99.90;;;;;;5068851;28;20996;-70
2022/08/24 01:18:50;;;;;;;4.07;2.90;;;21.10;99.90;;;;;;5069103;28;20516;-69
2022/08/24 01:21:22;;;;;;;4.77;2.70;;;21.00;99.90;;;;;;5069260;28;20192;-70
2022/08/24 01:23:54;;;;;;;5.33;2.93;;;21.00;99.90;;;;;;5053697;28;20639;-70
2022/08/24 01:26:25;;;;;;;3.87;2.90;;;21.00;99.90;;;;;;5028862;28;20228;-70
2022/08/24 01:28:57;;;;;;;2.70;2.50;;;21.00;99.90;;;;;;5035974;28;20213;-71
2022/08/24 01:31:24;;;;;;;3.60;3.23;;;20.90;99.90;;;;;;5048788;28;20204;-71
2022/08/24 01:33:53;;;;;;;2.90;2.70;;;20.90;99.90;;;;;;5049088;28;20212;-69
2022/08/24 01:36:27;;;;;;;6.23;3.10;;;20.90;99.90;;;;;;5048841;28;20204;-70
2022/08/24 01:38:57;;;;;;;3.87;2.90;;;20.90;99.90;;;;;;5041846;28;20558;-70
2022/08/24 01:41:23;;;;;;;3.90;2.93;;;20.80;99.90;;;;;;5028625;28;20245;-70
2022/08/24 01:43:50;;;;;;;3.47;3.03;;;20.80;99.90;;;;;;5042319;28;20237;-70
2022/08/24 01:46:17;;;;;;;4.17;3.07;;;20.70;99.90;;;;;;5048082;28;20669;-70
2022/08/24 01:48:44;;;;;;;4.03;2.80;;;20.60;99.90;;;;;;5048678;28;20239;-71
2022/08/24 01:51:11;;;;;;;4.60;2.87;;;20.60;99.90;;;;;;5048624;28;20204;-71
2022/08/24 01:53:37;;;;;;;3.57;2.83;;;20.60;99.90;;;;;;5048369;28;20216;-71
2022/08/24 01:56:08;;;;;;;4.75;3.25;;;20.60;99.90;;;;;;5048461;28;20210;-71
2022/08/24 01:58:35;;;;;;;3.83;3.10;;;20.60;99.90;;;;;;5047965;28;20254;-71
2022/08/24 02:01:05;;;;;;;4.70;3.37;;;20.60;99.90;;;;;;5047560;28;20215;-71
2022/08/24 02:03:32;;;;;;;4.57;3.30;;;20.60;99.90;;;;;;5048128;28;20227;-71
2022/08/24 02:05:59;;;;;;;5.73;3.40;;;20.60;99.90;;;;;;5047925;28;20298;-71
2022/08/24 02:08:26;;;;;;;3.60;3.10;;;20.60;99.90;;;;;;5047133;28;20231;-71
2022/08/24 02:10:53;;;;;;;6.00;3.37;;;20.60;99.90;;;;;;5047826;28;20199;-71
2022/08/24 02:13:21;;;;;;;4.33;3.30;;;20.50;99.90;;;;;;5047788;28;20208;-71
2022/08/24 02:15:48;;;;;;;4.63;3.60;;;20.50;99.90;;;;;;5047681;28;20694;-71
2022/08/24 02:18:14;;;;;;;3.77;3.30;;;20.40;99.90;;;;;;5048146;28;20204;-70
2022/08/24 02:20:41;;;;;;;3.13;2.90;;;20.40;99.90;;;;;;5047724;28;20272;-70
2022/08/24 02:23:08;;;;;;;3.63;3.30;;;20.40;99.90;;;;;;5047999;28;20204;-69
2022/08/24 02:25:35;;;;;;;4.67;3.13;;;20.40;99.90;;;;;;5047838;28;20582;-69
2022/08/24 02:28:02;;;;;;;4.60;3.33;;;20.40;99.90;;;;;;5046921;28;20610;-69
2022/08/24 02:30:31;;;;;;;3.67;3.27;;;20.40;99.90;;;;;;5045613;28;20385;-69
2022/08/24 02:32:59;;;;;;;4.53;3.53;;;20.50;99.90;;;;;;5045675;28;20208;-69
2022/08/24 02:35:29;;;;;;;3.93;3.63;;;20.50;99.90;;;;;;5045801;28;20325;-68
2022/08/24 02:37:56;;;;;;;6.20;4.07;;;20.50;99.90;;;;;;5045877;28;20310;-69
2022/08/24 02:40:23;;;;;;;6.67;4.73;;;20.50;99.90;;;;;;5045681;28;20200;-69
2022/08/24 02:42:50;;;;;;;7.93;6.07;;;20.60;99.90;;;;;;5045103;28;20614;-69
2022/08/24 02:45:17;;;;;;;8.97;6.00;;;20.50;99.90;;;;;;5045027;28;20208;-69
2022/08/24 02:47:45;;;;;;;9.80;7.50;;;20.60;99.90;;;;;;5045300;28;20204;-68
2022/08/24 02:50:14;;;;;;;11.70;7.10;;;20.40;99.90;;;;;;5045250;28;20243;-68
2022/08/24 02:52:42;;;;;;;10.33;7.17;;;20.50;99.90;;;;;;5044934;28;20201;-68
2022/08/24 02:55:12;;;;;;;14.60;9.03;;;20.50;99.90;;;;;;5045655;28;20210;-68
2022/08/24 02:57:38;;;;;;;10.77;8.60;;;20.50;99.90;;;;;;5045322;28;20200;-68
2022/08/24 03:00:09;;;;;;;14.27;9.20;;;20.50;99.90;;;;;;5045793;28;20199;-69
2022/08/24 03:02:36;;;;;;;13.30;9.70;;;20.50;99.90;;;;;;5044984;28;20215;-67
2022/08/24 03:05:05;;;;;;;15.20;11.83;;;20.50;99.90;;;;;;5045801;28;20294;-67
2022/08/24 03:07:32;;;;;;;15.07;10.87;;;20.50;99.90;;;;;;5045542;28;20577;-67
2022/08/24 03:09:58;;;;;;;17.80;10.40;;;20.50;99.90;;;;;;5045908;28;20239;-67
2022/08/24 03:12:25;;;;;;;15.53;9.80;;;20.50;99.90;;;;;;5046491;28;20204;-67
2022/08/24 03:14:52;;;;;;;14.47;9.50;;;20.40;99.90;;;;;;5046090;28;20240;-67
2022/08/24 03:17:19;;;;;;;12.10;9.70;;;20.40;99.90;;;;;;5046517;28;20208;-67
2022/08/24 03:19:46;;;;;;;18.87;10.00;;;20.40;99.90;;;;;;5050775;28;20573;-67
2022/08/24 03:22:14;;;;;;;13.10;9.17;;;20.50;99.90;;;;;;5047201;28;20205;-68
2022/08/24 03:24:41;;;;;;;16.37;10.03;;;20.50;99.90;;;;;;5051058;28;20658;-68
2022/08/24 03:27:07;;;;;;;15.33;9.00;;;20.50;99.90;;;;;;5051326;28;20242;-68
2022/08/24 03:29:35;;;;;;;10.43;8.37;;;20.50;99.90;;;;;;5051086;28;20266;-68
2022/08/24 03:32:03;;;;;;;10.33;8.97;;;20.50;99.90;;;;;;5051334;28;20211;-68
2022/08/24 03:34:30;;;;;;;14.63;9.07;;;20.50;99.90;;;;;;5051142;28;20227;-68
2022/08/24 03:36:57;;;;;;;11.30;8.50;;;20.50;99.90;;;;;;5051120;28;20691;-68
2022/08/24 03:39:25;;;;;;;11.27;8.80;;;20.40;99.90;;;;;;5050805;28;20207;-68
2022/08/24 03:41:52;;;;;;;11.17;8.73;;;20.40;99.90;;;;;;5050446;28;20232;-68
2022/08/24 03:44:18;;;;;;;15.67;10.40;;;20.40;99.90;;;;;;5050572;28;20208;-68
2022/08/24 03:46:45;;;;;;;14.23;9.87;;;20.40;99.90;;;;;;5050501;28;20232;-67
2022/08/24 03:49:13;;;;;;;13.03;9.37;;;20.30;99.90;;;;;;5050790;28;20235;-68
2022/08/24 03:51:40;;;;;;;8.37;6.37;;;20.20;99.90;;;;;;5050802;28;20208;-67
2022/08/24 03:54:10;;;;;;;8.37;5.93;;;20.00;99.90;;;;;;5050605;28;20208;-68
2022/08/24 03:56:38;;;;;;;6.10;5.50;;;19.80;99.90;;;;;;5050646;28;20361;-68
2022/08/24 03:59:06;;;;;;;5.97;5.30;;;19.90;99.90;;;;;;5049985;28;20216;-67
2022/08/24 04:01:33;;;;;;;8.20;5.13;;;19.80;99.90;;;;;;5050093;28;20257;-67
2022/08/24 04:04:00;;;;;;;7.97;4.20;;;19.80;99.90;;;;;;5050379;28;20208;-67
2022/08/24 04:06:27;;;;;;;7.97;4.57;;;19.80;99.90;;;;;;5050394;28;20231;-67
2022/08/24 04:08:54;;;;;;;5.30;3.93;;;19.80;99.90;;;;;;5050589;28;20237;-67
2022/08/24 04:11:23;;;;;;;6.27;4.43;;;19.80;99.90;;;;;;5050393;28;20235;-67
2022/08/24 04:13:55;;;;;;;7.27;4.70;;;19.70;99.90;;;;;;5049962;28;20208;-67
2022/08/24 04:16:23;;;;;;;6.10;4.30;;;19.80;99.90;;;;;;5049905;28;20611;-68
2022/08/24 04:18:50;;;;;;;6.60;4.40;;;19.70;99.90;;;;;;5050174;28;20204;-67
2022/08/24 04:21:19;;;;;;;7.80;4.70;;;19.70;99.90;;;;;;5049785;28;20685;-67
2022/08/24 04:23:46;;;;;;;4.80;4.30;;;19.70;99.90;;;;;;5050222;28;20220;-67
2022/08/24 04:26:13;;;;;;;6.13;4.40;;;19.70;99.90;;;;;;5050063;28;20221;-67
2022/08/24 04:28:40;;;;;;;7.57;4.23;;;19.60;99.90;;;;;;5049828;28;20295;-67
2022/08/24 04:31:08;;;;;;;6.07;4.43;;;19.70;99.90;;;;;;5049125;28;20204;-68
2022/08/24 04:33:35;;;;;;;7.60;5.17;;;19.60;99.90;;;;;;5049500;28;20734;-68
2022/08/24 04:36:08;;;;;;;5.77;5.17;;;19.60;99.90;;;;;;5049891;28;20226;-68
2022/08/24 04:38:35;;;;;;;11.50;5.70;;;19.60;99.90;;;;;;5049522;28;20248;-68
2022/08/24 04:41:06;;;;;;;7.60;5.13;;;19.70;99.90;;;;;;5049364;28;20974;-68
2022/08/24 04:43:33;;;;;;;8.03;5.80;;;19.70;99.90;;;;;;5049012;28;20618;-68
2022/08/24 04:46:04;;;;;;;9.07;5.63;;;19.70;99.90;;;;;;5049179;28;20208;-68
2022/08/24 04:48:32;;;;;;;7.33;5.70;;;19.70;99.90;;;;;;5049202;28;20192;-68
2022/08/24 04:51:04;;;;;;;8.03;5.63;;;19.70;99.90;;;;;;5049745;28;20299;-68
2022/08/24 04:53:31;;;;;;;8.90;6.17;;;19.70;99.90;;;;;;5049463;28;20221;-68
2022/08/24 04:55:58;;;;;;;8.30;5.83;;;19.70;99.90;;;;;;5049017;28;20263;-68
2022/08/24 04:58:27;;;;;;;10.00;6.47;;;19.70;99.90;;;;;;5049299;28;20214;-68
2022/08/24 05:00:54;;;;;;;9.63;5.97;;;19.60;99.90;;;;;;5049389;28;20204;-68
2022/08/24 05:03:21;;;;;;;11.37;6.30;;;19.60;99.90;;;;;;5049086;28;20207;-68
2022/08/24 05:05:51;;;;;;;9.83;6.70;;;19.60;99.90;;;;;;5049362;28;20204;-68
2022/08/24 05:08:19;;;;;;;8.67;5.90;;;19.60;99.90;;;;;;5047645;28;20200;-68
2022/08/24 05:10:49;;;;;;;11.03;6.70;;;19.60;99.90;;;;;;5062848;28;20226;-68
2022/08/24 05:13:16;;;;;;;7.13;6.00;;;19.50;99.90;;;;;;5060067;28;20577;-68
2022/08/24 05:15:46;;;;;;;9.83;6.47;;;19.40;99.90;;;;;;5049200;28;20555;-68
2022/08/24 05:18:14;;;;;;;9.50;7.03;;;19.40;99.90;;;;;;5046414;28;20433;-68
2022/08/24 05:20:42;;;;;;;10.07;6.97;;;19.40;99.90;;;;;;5029665;28;20212;-68
2022/08/24 05:23:10;;;;;;;8.23;7.27;;;19.50;99.90;;;;;;5037101;28;20208;-68
2022/08/24 05:25:38;;;;;;;9.90;7.20;;;19.40;99.90;;;;;;5048962;28;20208;-68
2022/08/24 05:28:05;;;;;;;14.37;7.00;;;19.40;99.90;;;;;;5049111;28;20208;-68
2022/08/24 05:30:32;;;;;;;7.70;6.87;;;19.50;99.90;;;;;;5048682;28;20231;-68
2022/08/24 05:32:59;;;;;;;10.53;7.33;;;19.50;99.90;;;;;;5048832;28;20846;-68
2022/08/24 05:35:25;;;;;;;7.90;7.10;;;19.50;99.90;;;;;;5048680;28;20296;-68
2022/08/24 05:37:52;;;;;;;12.70;8.20;;;19.50;99.90;;;;;;5048775;28;20210;-68
2022/08/24 05:40:22;;;;;;;10.47;7.80;;;19.50;99.90;;;;;;5048541;28;20197;-68
2022/08/24 05:42:49;;;;;;;13.20;8.60;;;19.50;99.90;;;;;;5047162;28;20608;-68
2022/08/24 05:45:16;;;;;;;11.50;8.33;;;19.50;99.90;;;;;;5048253;28;20666;-68
2022/08/24 05:47:42;;;;;;;10.90;7.50;;;19.50;99.90;;;;;;5048649;28;20208;-68
2022/08/24 05:50:10;;;;;;;10.07;8.10;;;19.50;99.90;;;;;;5048149;28;20686;-68
2022/08/24 05:52:37;;;;;;;11.07;8.67;;;19.50;99.90;;;;;;5048466;28;20223;-68
2022/08/24 05:55:05;;;;;;;11.07;8.60;;;19.50;99.90;;;;;;5048549;28;20204;-68
2022/08/24 05:57:35;;;;;;;10.63;8.63;;;19.40;99.90;;;;;;5048151;28;20243;-68
2022/08/24 06:00:04;;;;;;;10.47;9.37;;;19.40;99.90;;;;;;5048473;28;20204;-68
2022/08/24 06:02:31;;;;;;;10.27;8.50;;;19.40;99.90;;;;;;5047778;28;20801;-68
2022/08/24 06:04:58;;;;;;;9.30;8.40;;;19.50;99.90;;;;;;5048104;28;20220;-68
2022/08/24 06:07:25;;;;;;;10.37;9.27;;;19.40;99.90;;;;;;5047959;28;20212;-68
2022/08/24 06:09:53;;;;;;;9.53;8.53;;;19.50;99.90;;;;;;5048038;28;20228;-68
2022/08/24 06:12:19;;;;;;;9.23;8.33;;;19.50;99.90;;;;;;5047788;28;20204;-68
2022/08/24 06:14:47;;;;;;;10.07;8.47;;;19.70;99.90;;;;;;5048180;28;20292;-68
2022/08/24 06:17:14;;;;;;;10.43;8.80;;;19.60;99.90;;;;;;5047996;28;20235;-69
2022/08/24 06:19:42;;;;;;;10.53;9.10;;;19.70;99.90;;;;;;5047713;28;20212;-68
2022/08/24 06:22:09;;;;;;;11.60;9.20;;;19.70;99.90;;;;;;5047988;28;20204;-68
2022/08/24 06:27:24;;;;;;;10.07;8.40;;;19.80;99.90;;;;;;5047404;28;20238;-68
2022/08/24 06:29:54;;;;;;;11.07;9.13;;;19.80;99.90;;;;;;5047742;28;20243;-68
2022/08/24 06:32:21;;;;;;;13.17;9.93;;;19.80;99.90;;;;;;5047642;28;20197;-68
2022/08/24 06:34:48;;;;;;;11.83;10.17;;;19.70;99.90;;;;;;5047927;28;20210;-68
2022/08/24 06:37:15;;;;;;;10.63;9.50;;;19.70;99.90;;;;;;5047809;28;20195;-68
2022/08/24 06:39:42;;;;;;;11.20;9.97;;;19.70;99.90;;;;;;5047131;28;20216;-68
2022/08/24 06:42:09;;;;;;;12.27;9.33;;;19.80;99.90;;;;;;5047466;28;20333;-68
2022/08/24 06:44:37;;;;;;;11.70;9.37;;;19.90;99.90;;;;;;5047548;28;20204;-68
2022/08/24 06:47:05;;;;;;;12.73;9.80;;;19.90;99.90;;;;;;5047114;28;20295;-68
2022/08/24 06:49:32;;;;;;;9.90;9.00;;;19.90;99.90;;;;;;5047403;28;20609;-68
2022/08/24 06:51:59;;;;;;;10.20;9.20;;;20.00;99.90;;;;;;5047821;28;20204;-68
2022/08/24 06:54:26;;;;;;;10.37;9.13;;;20.10;99.90;;;;;;5047260;28;21050;-68
2022/08/24 06:56:54;;;;;;;10.30;9.00;;;20.10;99.90;;;;;;5047621;28;20201;-69
2022/08/24 06:59:20;;;;;;;11.20;10.10;;;20.20;99.90;;;;;;5047260;28;20216;-68
2022/08/24 07:01:47;;;;;;;10.50;9.50;;;20.10;99.90;;;;;;5047315;28;20199;-68
2022/08/24 07:04:15;;;;;;;11.50;9.80;;;20.10;99.90;;;;;;5047519;28;20223;-68
2022/08/24 07:06:42;;;;;;;9.97;9.03;;;20.20;99.90;;;;;;5047560;28;20570;-69
2022/08/24 07:09:09;;;;;;;10.47;9.47;;;20.20;99.90;;;;;;5047581;28;20291;-68
2022/08/24 07:11:36;;;;;;;11.30;10.07;;;20.30;99.90;;;;;;5047524;28;20594;-68
2022/08/24 07:14:03;;;;;;;11.70;9.97;;;20.30;99.90;;;;;;5047244;28;20219;-68
2022/08/24 07:16:30;;;;;;;11.40;10.03;;;20.30;99.90;;;;;;5047290;28;20266;-68
2022/08/24 07:18:57;;;;;;;11.53;9.47;;;20.40;99.90;;;;;;5047670;28;20208;-68
2022/08/24 07:21:25;;;;;;;10.63;9.20;;;20.40;99.90;;;;;;5047141;28;20303;-68
2022/08/24 07:23:56;;;;;;;10.20;9.17;;;20.50;99.90;;;;;;5047068;28;20208;-68
2022/08/24 07:26:25;;;;;;;12.87;10.40;;;20.60;99.90;;;;;;5047101;28;20224;-68
2022/08/24 07:28:54;;;;;;;12.10;10.87;;;20.60;99.90;;;;;;5046902;28;20566;-68
2022/08/24 07:31:21;;;;;;;47.77;14.50;;;20.70;99.90;;;;;;5046904;28;20232;-68
2022/08/24 07:33:48;;;;;;;19.17;12.53;;;20.80;99.90;;;;;;5047553;28;20212;-68
2022/08/24 07:36:16;;;;;;;16.80;12.67;;;20.80;99.90;;;;;;5047323;28;20204;-68
2022/08/24 07:38:45;;;;;;;18.87;13.07;;;20.80;99.90;;;;;;5047040;28;20602;-68
2022/08/24 07:41:13;;;;;;;18.37;12.43;;;20.90;99.90;;;;;;5047109;28;20246;-68
2022/08/24 07:43:40;;;;;;;21.30;14.33;;;20.90;99.90;;;;;;5046766;28;20524;-68
2022/08/24 07:46:07;;;;;;;21.40;13.10;;;21.00;99.90;;;;;;5046806;28;20239;-68
2022/08/24 07:48:34;;;;;;;20.57;12.90;;;21.00;99.90;;;;;;5046884;28;20284;-68
2022/08/24 07:51:07;;;;;;;16.87;12.73;;;21.10;99.90;;;;;;5047281;28;20261;-68
2022/08/24 07:53:35;;;;;;;27.97;13.63;;;21.10;99.90;;;;;;5047023;28;20204;-68
2022/08/24 07:56:06;;;;;;;21.53;12.67;;;21.10;99.90;;;;;;5046705;28;20219;-68
2022/08/24 07:58:33;;;;;;;20.80;11.77;;;21.20;99.90;;;;;;5046853;28;20207;-68
2022/08/24 08:01:00;;;;;;;16.90;11.47;;;21.30;99.90;;;;;;5046958;28;20208;-68
2022/08/24 08:03:28;;;;;;;16.57;11.17;;;21.20;99.90;;;;;;5046998;28;20216;-68
2022/08/24 08:05:56;;;;;;;14.87;11.23;;;21.30;99.90;;;;;;5048878;28;20220;-68
2022/08/24 08:08:23;;;;;;;12.63;10.80;;;21.30;99.90;;;;;;5050156;28;20212;-68
2022/08/24 08:10:50;;;;;;;14.53;9.80;;;21.40;99.90;;;;;;5050507;28;20584;-68
2022/08/24 08:13:19;;;;;;;13.20;10.77;;;21.40;99.90;;;;;;5050216;28;20212;-68
2022/08/24 08:15:46;;;;;;;14.80;10.30;;;21.40;99.90;;;;;;5050164;28;20693;-68
2022/08/24 08:18:13;;;;;;;12.20;9.43;;;21.40;99.90;;;;;;5050303;28;20219;-68
2022/08/24 08:20:41;;;;;;;13.70;9.63;;;21.50;99.90;;;;;;5050614;28;20208;-68
2022/08/24 08:25:56;;;;;;;11.35;9.32;;;21.40;99.90;;;;;;5050231;28;20274;-68
2022/08/24 08:28:24;;;;;;;10.37;8.53;;;21.50;99.90;;;;;;5049727;28;20693;-68
2022/08/24 08:30:52;;;;;;;10.15;8.68;;;21.50;99.90;;;;;;5049749;28;20259;-68
2022/08/24 08:33:19;;;;;;;9.93;8.37;;;21.60;99.90;;;;;;5049672;28;20212;-68
2022/08/24 08:35:46;;;;;;;13.00;8.98;;;21.70;99.90;;;;;;5049023;28;20204;-68
2022/08/24 08:38:13;;;;;;;9.95;8.70;;;21.80;99.90;;;;;;5049561;28;20208;-68
2022/08/24 08:40:54;;;;;;;11.13;9.20;;;21.90;99.90;;;;;;5046158;28;20218;-68
2022/08/24 08:43:39;;;;;;;9.77;8.02;;;21.90;99.90;;;;;;5049803;28;20326;-68
2022/08/24 08:46:23;;;;;;;9.77;8.20;;;21.90;99.90;;;;;;5049580;28;20201;-68
2022/08/24 08:49:12;;;;;;;34.15;10.43;;;22.00;99.90;;;;;;5049775;28;20198;-68
2022/08/24 08:52:08;;;;;;;10.20;8.52;;;22.10;99.90;;;;;;5049701;28;20216;-68
2022/08/24 08:54:50;;;;;;;10.60;8.82;;;22.20;99.90;;;;;;5023214;28;20200;-68
2022/08/24 08:57:46;;;;;;;9.82;8.35;;;22.30;99.90;;;;;;5049411;28;20188;-68
2022/08/24 09:00:19;;;;;;;12.10;9.23;;;22.40;99.90;;;;;;5042424;28;20675;-68
2022/08/24 09:03:20;;;;;;;13.50;9.73;;;22.50;99.90;;;;;;5049558;28;20300;-68
2022/08/24 09:06:05;;;;;;;12.32;9.20;;;22.40;99.90;;;;;;5049286;28;20220;-68
2022/08/24 09:08:53;;;;;;;16.10;9.20;;;22.40;99.90;;;;;;5049342;28;20210;-68
2022/08/24 09:11:31;;;;;;;12.35;9.07;;;22.60;99.90;;;;;;5049175;28;20220;-68
2022/08/24 09:14:16;;;;;;;13.52;9.35;;;22.60;99.90;;;;;;5049342;28;20222;-68
2022/08/24 09:16:57;;;;;;;12.77;8.98;;;22.70;99.90;;;;;;5049241;28;20204;-68
2022/08/24 09:19:36;;;;;;;12.05;9.27;;;22.70;99.90;;;;;;5049273;28;20196;-68
2022/08/24 09:22:11;;;;;;;10.90;9.82;;;22.80;99.90;;;;;;5049066;28;20666;-68
2022/08/24 09:24:51;;;;;;;11.48;9.30;;;22.80;99.90;;;;;;5028901;28;20193;-67
2022/08/24 09:27:27;;;;;;;12.15;9.43;;;22.90;99.90;;;;;;5043259;28;20690;-68
2022/08/24 09:30:07;;;;;;;10.00;8.32;;;22.90;99.90;;;;;;5049005;28;20999;-68
2022/08/24 09:32:59;;;;;;;10.55;9.35;;;23.00;99.90;;;;;;5048957;28;20230;-68
2022/08/24 09:35:35;;;;;;;9.15;8.18;;;23.10;99.90;;;;;;5048562;28;20611;-68
2022/08/24 09:38:17;;;;;;;11.27;8.93;;;23.10;99.90;;;;;;5049076;28;20868;-68
2022/08/24 09:41:04;;;;;;;14.00;9.07;;;23.20;99.90;;;;;;5028674;28;20228;-68
2022/08/24 09:43:54;;;;;;;9.15;8.25;;;23.20;99.90;;;;;;5039393;28;20212;-68
2022/08/24 09:46:59;;;;;;;11.27;8.65;;;23.30;99.90;;;;;;5048448;28;20639;-68
2022/08/24 09:53:00;;;;;;;11.48;9.25;;;23.40;99.90;;;;;;5125609;27;20622;-67
2022/08/24 09:55:55;;;;;;;12.77;8.95;;;23.60;99.90;;;;;;5126048;27;20564;-68
2022/08/24 09:58:37;;;;;;;11.60;9.15;;;23.70;99.90;;;;;;5125673;27;20262;-68
2022/08/24 10:01:17;;;;;;;11.82;9.02;;;23.80;99.90;;;;;;5125636;27;20190;-69
2022/08/24 10:04:01;;;;;;;10.52;8.68;;;23.90;99.90;;;;;;5118335;27;20675;-68
2022/08/24 10:06:38;;;;;;;10.32;9.27;;;23.90;99.90;;;;;;5104807;28;20194;-68
2022/08/24 10:09:53;;;;;;;10.82;8.88;;;23.90;99.90;;;;;;5105212;28;20197;-68
2022/08/24 10:12:31;;;;;;;12.00;10.25;;;23.90;99.90;;;;;;5041698;28;20635;-69
2022/08/24 10:15:04;;;;;;;14.00;10.43;;;23.90;99.90;;;;;;5041917;28;20196;-68
2022/08/24 10:17:43;;;;;;;12.30;9.85;;;23.90;99.90;;;;;;5076670;28;20214;-69
2022/08/24 10:20:22;;;;;;;12.73;10.98;;;23.90;99.90;;;;;;5104919;28;20567;-69
2022/08/24 10:23:10;;;;;;;12.93;10.80;;;24.00;99.90;;;;;;5113652;28;20197;-68
2022/08/24 10:25:44;;;;;;;13.05;11.18;;;24.10;99.90;;;;;;5125169;27;20218;-68
2022/08/24 10:28:33;;;;;;;13.95;10.63;;;24.20;99.90;;;;;;5125313;27;20553;-68
2022/08/24 10:31:08;;;;;;;12.40;10.82;;;24.20;99.90;;;;;;5124549;27;20711;-69
2022/08/24 10:33:48;;;;;;;12.52;11.20;;;24.30;99.90;;;;;;5124800;27;20659;-68
2022/08/24 10:36:30;;;;;;;13.43;10.98;;;24.50;99.90;;;;;;5124886;27;20194;-69
2022/08/24 10:45:45;;;;;;;17.95;11.23;;;24.80;99.90;;;;;;5105869;27;20205;-69
2022/08/24 10:48:37;;;;;;;13.40;10.23;;;24.70;99.90;;;;;;5111201;28;20209;-69
2022/08/24 10:51:27;;;;;;;15.90;10.32;;;24.80;99.90;;;;;;5124488;27;20263;-68
2022/08/24 10:53:55;;;;;;;12.57;11.35;;;24.90;99.90;;;;;;5124686;27;20208;-69
2022/08/24 10:56:35;;;;;;;14.77;11.70;;;25.00;99.90;;;;;;5124624;27;20209;-69
2022/08/24 10:59:17;;;;;;;14.43;11.18;;;25.00;99.90;;;;;;5124492;27;20331;-69
2022/08/24 11:02:01;;;;;;;17.95;11.70;;;25.00;99.90;;;;;;5121480;27;20747;-69
2022/08/24 11:04:30;;;;;;;13.63;10.93;;;25.20;99.90;;;;;;5110723;27;20193;-69
2022/08/24 11:07:08;;;;;;;15.43;11.30;;;25.50;99.90;;;;;;5110727;28;20206;-69
2022/08/24 11:09:48;;;;;;;16.55;11.70;;;25.60;99.90;;;;;;5110271;28;20194;-69
2022/08/24 11:12:23;;;;;;;20.08;11.75;;;25.60;99.90;;;;;;5110484;28;20214;-68
2022/08/24 11:14:52;;;;;;;12.77;10.65;;;25.50;99.90;;;;;;5110666;28;20602;-68
2022/08/24 11:17:21;;;;;;;12.85;10.35;;;25.40;99.90;;;;;;5110219;28;20202;-68
2022/08/24 11:19:49;;;;;;;11.25;9.80;;;25.40;99.90;;;;;;5110587;28;20298;-69
2022/08/24 11:22:36;;;;;;;12.32;10.43;;;25.40;99.90;;;;;;5110350;28;20214;-68
2022/08/24 11:25:14;;;;;;;15.80;10.60;;;25.40;99.90;;;;;;5110522;28;20190;-69
2022/08/24 11:27:44;;;;;;;12.35;10.32;;;25.60;99.90;;;;;;5107701;27;20198;-68
2022/08/24 11:30:22;;;;;;;15.15;9.52;;;25.90;99.90;;;;;;5090082;28;20207;-69
2022/08/24 11:32:55;;;;;;;10.45;9.32;;;26.20;99.90;;;;;;5090073;28;20248;-69
2022/08/24 11:35:25;;;;;;;11.00;8.50;;;26.40;99.90;;;;;;5089778;28;20230;-69
2022/08/24 11:37:55;;;;;;;11.95;9.32;;;26.70;99.90;;;;;;5090348;28;20207;-69
2022/08/24 11:40:27;;;;;;;9.63;8.50;;;26.80;99.90;;;;;;5089670;28;20217;-69
2022/08/24 11:43:11;;;;;;;9.82;8.00;;;26.90;99.90;;;;;;5091846;28;20206;-69
2022/08/24 11:45:44;;;;;;;9.00;8.10;;;26.90;99.90;;;;;;5089581;28;20281;-70
2022/08/24 11:48:23;;;;;;;12.25;8.40;;;27.10;99.90;;;;;;5089675;28;20642;-69
2022/08/24 11:50:56;;;;;;;11.60;8.20;;;27.10;99.90;;;;;;5089566;28;20562;-69
2022/08/24 11:53:32;;;;;;;10.80;8.07;;;27.00;99.90;;;;;;5089675;28;20501;-68
2022/08/24 11:56:09;;;;;;;11.05;8.30;;;26.80;99.90;;;;;;5094606;28;20208;-69
2022/08/24 11:58:43;;;;;;;10.07;8.00;;;26.70;99.90;;;;;;5109921;28;20551;-69
2022/08/24 12:01:17;;;;;;;8.68;7.88;;;26.60;99.90;;;;;;5109758;28;20194;-69
2022/08/24 12:03:59;;;;;;;12.57;7.90;;;26.80;99.90;;;;;;5110011;28;20243;-69
2022/08/24 12:06:42;;;;;;;10.43;8.55;;;26.90;99.90;;;;;;5109760;28;20233;-69
2022/08/24 12:09:20;;;;;;;9.57;7.53;;;27.10;99.90;;;;;;5109781;27;20218;-69
2022/08/24 12:11:55;;;;;;;14.10;7.97;;;27.30;99.90;;;;;;5109560;28;20222;-69
2022/08/24 12:14:27;;;;;;;11.82;8.05;;;27.50;99.90;;;;;;5090696;28;20216;-69
2022/08/24 12:17:01;;;;;;;9.65;8.02;;;27.70;99.90;;;;;;5109400;27;20281;-69
2022/08/24 12:19:30;;;;;;;9.02;8.18;;;27.70;99.90;;;;;;5109189;28;20198;-69
2022/08/24 12:22:00;;;;;;;9.10;7.65;;;27.60;99.90;;;;;;5109127;28;20213;-69
2022/08/24 12:24:35;;;;;;;10.00;7.60;;;27.40;99.90;;;;;;5105483;28;20229;-69
2022/08/24 12:27:07;;;;;;;14.48;7.47;;;27.40;99.90;;;;;;5109289;28;20232;-69
2022/08/24 12:29:41;;;;;;;8.57;6.60;;;27.50;99.90;;;;;;5108696;28;20201;-69
2022/08/24 12:32:14;;;;;;;12.45;7.28;;;27.70;99.90;;;;;;5108836;28;20218;-69
2022/08/24 12:34:50;;;;;;;8.48;7.28;;;27.80;99.90;;;;;;5108835;28;20204;-69
2022/08/24 12:37:22;;;;;;;10.98;6.95;;;28.00;99.90;;;;;;5109068;28;20202;-69
2022/08/24 12:39:58;;;;;;;8.32;7.35;;;28.20;99.90;;;;;;5103428;28;20358;-69
2022/08/24 12:42:32;;;;;;;10.02;7.68;;;28.30;99.90;;;;;;5108941;28;20194;-69
2022/08/24 12:45:02;;;;;;;7.85;7.03;;;28.60;99.90;;;;;;5108787;28;20205;-69
2022/08/24 12:47:37;;;;;;;9.35;6.88;;;28.80;99.90;;;;;;5108835;28;20212;-69
2022/08/24 12:50:09;;;;;;;7.28;6.68;;;28.90;99.90;;;;;;5097838;28;20209;-69
2022/08/24 12:53:21;;;;;;;8.32;6.60;;;29.00;99.90;;;;;;5105021;28;20214;-67
2022/08/24 12:56:16;;;;;;;7.55;6.03;;;29.10;99.90;;;;;;5069325;28;20677;-67
2022/08/24 12:58:56;;;;;;;7.57;6.47;;;29.20;99.90;;;;;;5099418;28;20620;-67
2022/08/24 13:01:25;;;;;;;5.85;4.80;;;29.20;99.90;;;;;;5103520;28;20617;-67
2022/08/24 13:04:14;;;;;;;10.98;7.10;;;29.30;99.90;;;;;;5088116;28;20203;-68
2022/08/24 13:06:45;;;;;;;12.95;6.78;;;29.30;99.90;;;;;;5088210;28;20195;-69
2022/08/24 13:09:25;;;;;;;7.35;5.95;;;29.40;99.90;;;;;;5093969;28;20194;-69
2022/08/24 13:11:54;;;;;;;7.35;6.63;;;29.50;99.90;;;;;;5108467;28;20214;-69
2022/08/24 13:14:22;;;;;;;7.60;6.57;;;29.60;99.90;;;;;;5108045;28;20220;-69
2022/08/24 13:17:07;;;;;;;7.80;6.93;;;29.60;99.90;;;;;;5108194;28;20206;-69
2022/08/24 13:19:38;;;;;;;7.22;6.53;;;29.80;99.90;;;;;;5107859;28;20231;-69